Hyner, Pennsylvania
Current Conditions -  °F | °C
As of 8:35 AM on Wednesday 22 Oct 2014 (Local Time) from KN38 Reporting Station
Light Rain Light Rain  
Wind Chill: 36°   Ceiling: 300
Heat Index: 43°   Visibility: 2.5mi
Dew Point: 43°   Wind: 14mph
Humidity: 100%   Direction: 10°N
Pressure: 30.08"   Gusts: 21mph
Location:  41.33°N, 77.64°W
Report Text: KN38 221235Z AUTO 01012G18KT 2 1/2SM -RA OVC003 06/06 A3008 RMK AO2
Loading
Personal Weather Stations






























Interactive Weather Map
Tropical Storm Tracking
New forecast layout! Learn more

10-Day Weather Forecast

Advertisements
Track Severe Weather on mobile